sensor_id;sensor_type;location;lat;lon;timestamp;pressure;altitude;pressure_sealevel;temperature;humidity
75157;BME280;63736;50.076;8.198;2023-03-05T00:00:06;99913.75;;;4.88;100.00
75157;BME280;63736;50.076;8.198;2023-03-05T00:02:32;99922.72;;;4.86;100.00
75157;BME280;63736;50.076;8.198;2023-03-05T00:04:57;99914.78;;;4.86;100.00
75157;BME280;63736;50.076;8.198;2023-03-05T00:07:22;99908.63;;;4.85;100.00
75157;BME280;63736;50.076;8.198;2023-03-05T00:09:47;99915.69;;;4.85;100.00
75157;BME280;63736;50.076;8.198;2023-03-05T00:12:13;99904.34;;;4.83;100.00
75157;BME280;63736;50.076;8.198;2023-03-05T00:14:38;99905.28;;;4.82;100.00
75157;BME280;63736;50.076;8.198;2023-03-05T00:17:04;99910.66;;;4.80;100.00
75157;BME280;63736;50.076;8.198;2023-03-05T00:19:29;99905.44;;;4.78;100.00
75157;BME280;63736;50.076;8.198;2023-03-05T00:21:54;99906.41;;;4.77;100.00
75157;BME280;63736;50.076;8.198;2023-03-05T00:24:19;99910.72;;;4.78;100.00
75157;BME280;63736;50.076;8.198;2023-03-05T00:26:45;99901.94;;;4.78;100.00
75157;BME280;63736;50.076;8.198;2023-03-05T00:29:14;99903.75;;;4.77;100.00
75157;BME280;63736;50.076;8.198;2023-03-05T00:31:39;99913.47;;;4.77;100.00
75157;BME280;63736;50.076;8.198;2023-03-05T00:34:11;99906.44;;;4.76;100.00
75157;BME280;63736;50.076;8.198;2023-03-05T00:36:42;99903.06;;;4.74;100.00
75157;BME280;63736;50.076;8.198;2023-03-05T00:39:08;99899.47;;;4.75;100.00
75157;BME280;63736;50.076;8.198;2023-03-05T00:41:34;99896.03;;;4.73;100.00
75157;BME280;63736;50.076;8.198;2023-03-05T00:43:59;99900.50;;;4.72;100.00
75157;BME280;63736;50.076;8.198;2023-03-05T00:46:25;99896.88;;;4.73;100.00
75157;BME280;63736;50.076;8.198;2023-03-05T00:48:52;99888.09;;;4.73;100.00
75157;BME280;63736;50.076;8.198;2023-03-05T00:51:17;99897.75;;;4.74;100.00
75157;BME280;63736;50.076;8.198;2023-03-05T00:53:43;99887.25;;;4.72;100.00
75157;BME280;63736;50.076;8.198;2023-03-05T00:56:08;99884.66;;;4.71;100.00
75157;BME280;63736;50.076;8.198;2023-03-05T00:58:33;99879.47;;;4.69;100.00
75157;BME280;63736;50.076;8.198;2023-03-05T01:00:59;99880.44;;;4.68;100.00
75157;BME280;63736;50.076;8.198;2023-03-05T01:03:26;99884.84;;;4.68;100.00
75157;BME280;63736;50.076;8.198;2023-03-05T01:05:52;99877.84;;;4.67;100.00
75157;BME280;63736;50.076;8.198;2023-03-05T01:08:17;99874.34;;;4.66;100.00
75157;BME280;63736;50.076;8.198;2023-03-05T01:10:42;99877.94;;;4.65;100.00
75157;BME280;63736;50.076;8.198;2023-03-05T01:13:08;99875.28;;;4.65;100.00
75157;BME280;63736;50.076;8.198;2023-03-05T01:15:33;99872.63;;;4.65;100.00
75157;BME280;63736;50.076;8.198;2023-03-05T01:17:58;99872.56;;;4.67;100.00
75157;BME280;63736;50.076;8.198;2023-03-05T01:20:24;99871.72;;;4.66;100.00
75157;BME280;63736;50.076;8.198;2023-03-05T01:22:49;99864.63;;;4.67;100.00
75157;BME280;63736;50.076;8.198;2023-03-05T01:25:15;99860.19;;;4.67;100.00
75157;BME280;63736;50.076;8.198;2023-03-05T01:27:40;99866.31;;;4.68;100.00
75157;BME280;63736;50.076;8.198;2023-03-05T01:30:08;99856.63;;;4.68;100.00
75157;BME280;63736;50.076;8.198;2023-03-05T01:32:34;99861.03;;;4.68;100.00
75157;BME280;63736;50.076;8.198;2023-03-05T01:35:01;99857.53;;;4.67;100.00
75157;BME280;63736;50.076;8.198;2023-03-05T01:37:27;99847.06;;;4.66;100.00
75157;BME280;63736;50.076;8.198;2023-03-05T01:39:52;99848.81;;;4.65;100.00
75157;BME280;63736;50.076;8.198;2023-03-05T01:42:18;99848.91;;;4.63;100.00
75157;BME280;63736;50.076;8.198;2023-03-05T01:44:59;99840.97;;;4.63;100.00
75157;BME280;63736;50.076;8.198;2023-03-05T01:47:25;99833.03;;;4.63;100.00
75157;BME280;63736;50.076;8.198;2023-03-05T01:49:50;99833.03;;;4.63;100.00
75157;BME280;63736;50.076;8.198;2023-03-05T01:52:18;99825.09;;;4.63;100.00
75157;BME280;63736;50.076;8.198;2023-03-05T01:55:15;99825.00;;;4.65;100.00
75157;BME280;63736;50.076;8.198;2023-03-05T01:57:45;99825.00;;;4.65;100.00
75157;BME280;63736;50.076;8.198;2023-03-05T02:00:24;99817.94;;;4.66;100.00
75157;BME280;63736;50.076;8.198;2023-03-05T02:02:50;99817.94;;;4.66;100.00
75157;BME280;63736;50.076;8.198;2023-03-05T02:07:43;99812.66;;;4.66;100.00
75157;BME280;63736;50.076;8.198;2023-03-05T02:12:41;99802.13;;;4.64;100.00
75157;BME280;63736;50.076;8.198;2023-03-05T02:15:07;99813.69;;;4.63;100.00
75157;BME280;63736;50.076;8.198;2023-03-05T02:17:32;99799.66;;;4.61;100.00
75157;BME280;63736;50.076;8.198;2023-03-05T02:20:06;99802.22;;;4.62;100.00
75157;BME280;63736;50.076;8.198;2023-03-05T02:22:32;99792.56;;;4.61;100.00
75157;BME280;63736;50.076;8.198;2023-03-05T02:24:57;99791.72;;;4.61;100.00
75157;BME280;63736;50.076;8.198;2023-03-05T02:27:27;99797.84;;;4.61;100.00
75157;BME280;63736;50.076;8.198;2023-03-05T02:29:59;99793.53;;;4.60;100.00
75157;BME280;63736;50.076;8.198;2023-03-05T02:32:24;99790.88;;;4.60;100.00
75157;BME280;63736;50.076;8.198;2023-03-05T02:34:50;99790.88;;;4.60;100.00
75157;BME280;63736;50.076;8.198;2023-03-05T02:37:15;99790.00;;;4.60;100.00
75157;BME280;63736;50.076;8.198;2023-03-05T02:39:40;99783.97;;;4.58;100.00
75157;BME280;63736;50.076;8.198;2023-03-05T02:42:06;99778.59;;;4.59;100.00
75157;BME280;63736;50.076;8.198;2023-03-05T02:44:31;99771.59;;;4.58;100.00
75157;BME280;63736;50.076;8.198;2023-03-05T02:46:56;99775.16;;;4.57;100.00
75157;BME280;63736;50.076;8.198;2023-03-05T02:49:21;99774.31;;;4.57;100.00
75157;BME280;63736;50.076;8.198;2023-03-05T02:51:47;99773.44;;;4.56;100.00
75157;BME280;63736;50.076;8.198;2023-03-05T02:54:12;99771.69;;;4.57;100.00
75157;BME280;63736;50.076;8.198;2023-03-05T02:56:37;99777.81;;;4.57;100.00
75157;BME280;63736;50.076;8.198;2023-03-05T02:59:03;99771.69;;;4.57;100.00
75157;BME280;63736;50.076;8.198;2023-03-05T03:01:29;99769.13;;;4.55;100.00
75157;BME280;63736;50.076;8.198;2023-03-05T03:03:54;99765.59;;;4.55;100.00
75157;BME280;63736;50.076;8.198;2023-03-05T03:06:20;99765.59;;;4.55;100.00
75157;BME280;63736;50.076;8.198;2023-03-05T03:08:45;99756.97;;;4.51;100.00
75157;BME280;63736;50.076;8.198;2023-03-05T03:11:11;99760.50;;;4.52;100.00
75157;BME280;63736;50.076;8.198;2023-03-05T03:13:37;99760.50;;;4.52;100.00
75157;BME280;63736;50.076;8.198;2023-03-05T03:16:11;99758.78;;;4.51;100.00
75157;BME280;63736;50.076;8.198;2023-03-05T03:18:37;99755.19;;;4.52;100.00
75157;BME280;63736;50.076;8.198;2023-03-05T03:21:03;99748.19;;;4.51;100.00
75157;BME280;63736;50.076;8.198;2023-03-05T03:23:29;99750.84;;;4.51;100.00
75157;BME280;63736;50.076;8.198;2023-03-05T03:25:54;99745.66;;;4.49;100.00
75157;BME280;63736;50.076;8.198;2023-03-05T03:28:20;99749.22;;;4.48;100.00
75157;BME280;63736;50.076;8.198;2023-03-05T03:30:45;99751.88;;;4.48;100.00
75157;BME280;63736;50.076;8.198;2023-03-05T03:33:10;99750.94;;;4.49;100.00
75157;BME280;63736;50.076;8.198;2023-03-05T03:35:36;99749.22;;;4.48;100.00
75157;BME280;63736;50.076;8.198;2023-03-05T03:38:01;99743.09;;;4.47;100.00
75157;BME280;63736;50.076;8.198;2023-03-05T03:40:27;99735.22;;;4.46;100.00
75157;BME280;63736;50.076;8.198;2023-03-05T03:42:52;99734.28;;;4.47;100.00
75157;BME280;63736;50.076;8.198;2023-03-05T03:45:18;99734.28;;;4.47;100.00
75157;BME280;63736;50.076;8.198;2023-03-05T03:47:47;99738.72;;;4.46;100.00
75157;BME280;63736;50.076;8.198;2023-03-05T03:50:12;99734.38;;;4.45;100.00
75157;BME280;63736;50.076;8.198;2023-03-05T03:52:38;99726.44;;;4.45;100.00
75157;BME280;63736;50.076;8.198;2023-03-05T03:55:03;99731.81;;;4.44;100.00
75157;BME280;63736;50.076;8.198;2023-03-05T03:57:29;99726.34;;;4.47;100.00
75157;BME280;63736;50.076;8.198;2023-03-05T03:59:55;99729.91;;;4.46;100.00
75157;BME280;63736;50.076;8.198;2023-03-05T04:02:20;99727.38;;;4.44;100.00
75157;BME280;63736;50.076;8.198;2023-03-05T04:04:45;99730.09;;;4.43;100.00
75157;BME280;63736;50.076;8.198;2023-03-05T04:07:11;99725.66;;;4.43;100.00
75157;BME280;63736;50.076;8.198;2023-03-05T04:09:36;99723.00;;;4.43;100.00
75157;BME280;63736;50.076;8.198;2023-03-05T04:12:02;99738.03;;;4.43;100.00
75157;BME280;63736;50.076;8.198;2023-03-05T04:14:27;99724.81;;;4.43;100.00
75157;BME280;63736;50.076;8.198;2023-03-05T04:16:53;99726.63;;;4.42;100.00
75157;BME280;63736;50.076;8.198;2023-03-05T04:19:18;99723.97;;;4.42;100.00
75157;BME280;63736;50.076;8.198;2023-03-05T04:21:43;99727.56;;;4.41;100.00
75157;BME280;63736;50.076;8.198;2023-03-05T04:24:08;99717.06;;;4.40;100.00
75157;BME280;63736;50.076;8.198;2023-03-05T04:26:34;99718.09;;;4.37;100.00
75157;BME280;63736;50.076;8.198;2023-03-05T04:29:00;99719.00;;;4.36;100.00
75157;BME280;63736;50.076;8.198;2023-03-05T04:31:25;99715.00;;;4.29;100.00
75157;BME280;63736;50.076;8.198;2023-03-05T04:33:50;99713.44;;;4.25;100.00
75157;BME280;63736;50.076;8.198;2023-03-05T04:36:15;99716.28;;;4.22;100.00
75157;BME280;63736;50.076;8.198;2023-03-05T04:38:41;99710.28;;;4.18;100.00
75157;BME280;63736;50.076;8.198;2023-03-05T04:41:06;99712.25;;;4.14;100.00
75157;BME280;63736;50.076;8.198;2023-03-05T04:43:31;99709.97;;;4.08;100.00
75157;BME280;63736;50.076;8.198;2023-03-05T04:45:56;99712.13;;;4.00;100.00
75157;BME280;63736;50.076;8.198;2023-03-05T04:48:22;99719.38;;;3.96;100.00
75157;BME280;63736;50.076;8.198;2023-03-05T04:50:47;99717.84;;;3.92;100.00
75157;BME280;63736;50.076;8.198;2023-03-05T04:53:12;99716.47;;;3.85;100.00
75157;BME280;63736;50.076;8.198;2023-03-05T04:55:37;99713.97;;;3.82;100.00
75157;BME280;63736;50.076;8.198;2023-03-05T04:58:03;99708.03;;;3.78;100.00
75157;BME280;63736;50.076;8.198;2023-03-05T05:00:28;99712.59;;;3.75;100.00
75157;BME280;63736;50.076;8.198;2023-03-05T05:02:53;99703.16;;;3.71;100.00
75157;BME280;63736;50.076;8.198;2023-03-05T05:05:24;99708.47;;;3.69;100.00
75157;BME280;63736;50.076;8.198;2023-03-05T05:07:53;99702.44;;;3.67;100.00
75157;BME280;63736;50.076;8.198;2023-03-05T05:10:19;99702.44;;;3.67;100.00
75157;BME280;63736;50.076;8.198;2023-03-05T05:12:44;99704.22;;;3.67;100.00
75157;BME280;63736;50.076;8.198;2023-03-05T05:15:10;99697.16;;;3.67;100.00
75157;BME280;63736;50.076;8.198;2023-03-05T05:17:36;99698.88;;;3.68;100.00
75157;BME280;63736;50.076;8.198;2023-03-05T05:20:03;99693.59;;;3.68;100.00
75157;BME280;63736;50.076;8.198;2023-03-05T05:22:32;99690.94;;;3.68;100.00
75157;BME280;63736;50.076;8.198;2023-03-05T05:24:58;99687.34;;;3.69;100.00
75157;BME280;63736;50.076;8.198;2023-03-05T05:27:23;99678.41;;;3.72;100.00
75157;BME280;63736;50.076;8.198;2023-03-05T05:29:48;99689.75;;;3.74;100.00
75157;BME280;63736;50.076;8.198;2023-03-05T05:32:18;99687.91;;;3.76;100.00
75157;BME280;63736;50.076;8.198;2023-03-05T05:34:44;99687.81;;;3.77;100.00
75157;BME280;63736;50.076;8.198;2023-03-05T05:37:09;99691.31;;;3.78;100.00
75157;BME280;63736;50.076;8.198;2023-03-05T05:39:35;99684.25;;;3.78;100.00
75157;BME280;63736;50.076;8.198;2023-03-05T05:42:00;99677.34;;;3.76;100.00
75157;BME280;63736;50.076;8.198;2023-03-05T05:44:25;99682.44;;;3.79;100.00
75157;BME280;63736;50.076;8.198;2023-03-05T05:46:51;99679.81;;;3.79;100.00
75157;BME280;63736;50.076;8.198;2023-03-05T05:49:16;99682.53;;;3.77;100.00
75157;BME280;63736;50.076;8.198;2023-03-05T05:51:41;99678.09;;;3.78;100.00
75157;BME280;63736;50.076;8.198;2023-03-05T05:54:06;99688.66;;;3.78;100.00
75157;BME280;63736;50.076;8.198;2023-03-05T05:56:32;99686.81;;;3.80;100.00
75157;BME280;63736;50.076;8.198;2023-03-05T05:58:58;99681.50;;;3.80;100.00
75157;BME280;63736;50.076;8.198;2023-03-05T06:01:29;99676.13;;;3.82;100.00
75157;BME280;63736;50.076;8.198;2023-03-05T06:03:55;99684.06;;;3.82;100.00
75157;BME280;63736;50.076;8.198;2023-03-05T06:06:22;99682.28;;;3.82;100.00
75157;BME280;63736;50.076;8.198;2023-03-05T06:08:48;99673.50;;;3.82;100.00
75157;BME280;63736;50.076;8.198;2023-03-05T06:11:14;99677.94;;;3.81;100.00
75157;BME280;63736;50.076;8.198;2023-03-05T06:13:39;99676.97;;;3.82;100.00
75157;BME280;63736;50.076;8.198;2023-03-05T06:16:08;99675.22;;;3.83;100.00
75157;BME280;63736;50.076;8.198;2023-03-05T06:18:34;99673.59;;;3.80;100.00
75157;BME280;63736;50.076;8.198;2023-03-05T06:21:06;99670.94;;;3.80;100.00
75157;BME280;63736;50.076;8.198;2023-03-05T06:23:31;99672.72;;;3.79;100.00
75157;BME280;63736;50.076;8.198;2023-03-05T06:26:01;99668.31;;;3.80;100.00
75157;BME280;63736;50.076;8.198;2023-03-05T06:28:28;99669.16;;;3.80;100.00
75157;BME280;63736;50.076;8.198;2023-03-05T06:31:08;99664.66;;;3.83;100.00
75157;BME280;63736;50.076;8.198;2023-03-05T06:33:34;99672.47;;;3.84;100.00
75157;BME280;63736;50.076;8.198;2023-03-05T06:36:12;99668.91;;;3.85;100.00
75157;BME280;63736;50.076;8.198;2023-03-05T06:38:38;99661.81;;;3.86;100.00
75157;BME280;63736;50.076;8.198;2023-03-05T06:41:05;99668.81;;;3.87;100.00
75157;BME280;63736;50.076;8.198;2023-03-05T06:43:33;99665.16;;;3.89;100.00
75157;BME280;63736;50.076;8.198;2023-03-05T06:46:03;99659.88;;;3.89;100.00
75157;BME280;63736;50.076;8.198;2023-03-05T06:48:29;99663.44;;;3.88;100.00
75157;BME280;63736;50.076;8.198;2023-03-05T06:50:54;99658.16;;;3.88;100.00
75157;BME280;63736;50.076;8.198;2023-03-05T06:53:19;99663.53;;;3.87;100.00
75157;BME280;63736;50.076;8.198;2023-03-05T06:55:45;99674.81;;;3.90;100.00
75157;BME280;63736;50.076;8.198;2023-03-05T06:58:10;99679.06;;;3.93;100.00
75157;BME280;63736;50.076;8.198;2023-03-05T07:00:35;99678.19;;;3.92;100.00
75157;BME280;63736;50.076;8.198;2023-03-05T07:03:01;99678.97;;;3.94;100.00
75157;BME280;63736;50.076;8.198;2023-03-05T07:05:26;99683.34;;;3.95;100.00
75157;BME280;63736;50.076;8.198;2023-03-05T07:07:51;99675.41;;;3.95;100.00
75157;BME280;63736;50.076;8.198;2023-03-05T07:10:16;99672.75;;;3.95;100.00
75157;BME280;63736;50.076;8.198;2023-03-05T07:12:42;99670.97;;;3.96;100.00
75157;BME280;63736;50.076;8.198;2023-03-05T07:15:07;99671.06;;;3.94;100.00
75157;BME280;63736;50.076;8.198;2023-03-05T07:17:33;99679.06;;;3.93;100.00
75157;BME280;63736;50.076;8.198;2023-03-05T07:19:58;99675.56;;;3.92;100.00
75157;BME280;63736;50.076;8.198;2023-03-05T07:22:23;99674.63;;;3.93;100.00
75157;BME280;63736;50.076;8.198;2023-03-05T07:24:49;99672.81;;;3.94;100.00
75157;BME280;63736;50.076;8.198;2023-03-05T07:27:15;99675.31;;;3.97;100.00
75157;BME280;63736;50.076;8.198;2023-03-05T07:29:40;99676.16;;;3.97;100.00
75157;BME280;63736;50.076;8.198;2023-03-05T07:32:05;99678.66;;;4.01;100.00
75157;BME280;63736;50.076;8.198;2023-03-05T07:34:31;99679.41;;;4.03;100.00
75157;BME280;63736;50.076;8.198;2023-03-05T07:36:56;99675.00;;;4.03;100.00
75157;BME280;63736;50.076;8.198;2023-03-05T07:39:22;99674.03;;;4.04;100.00
75157;BME280;63736;50.076;8.198;2023-03-05T07:41:47;99671.34;;;4.06;100.00
75157;BME280;63736;50.076;8.198;2023-03-05T07:44:14;99665.94;;;4.07;100.00
75157;BME280;63736;50.076;8.198;2023-03-05T07:46:41;99672.88;;;4.10;100.00
75157;BME280;63736;50.076;8.198;2023-03-05T07:49:06;99671.84;;;4.12;100.00
75157;BME280;63736;50.076;8.198;2023-03-05T07:51:32;99666.56;;;4.12;100.00
75157;BME280;63736;50.076;8.198;2023-03-05T07:53:57;99667.22;;;4.16;100.00
75157;BME280;63736;50.076;8.198;2023-03-05T07:56:28;99671.41;;;4.20;100.00
75157;BME280;63736;50.076;8.198;2023-03-05T07:58:59;99668.78;;;4.20;100.00
75157;BME280;63736;50.076;8.198;2023-03-05T08:01:24;99668.69;;;4.22;100.00
75157;BME280;63736;50.076;8.198;2023-03-05T08:03:50;99665.09;;;4.23;100.00
75157;BME280;63736;50.076;8.198;2023-03-05T08:06:16;99664.94;;;4.26;100.00
75157;BME280;63736;50.076;8.198;2023-03-05T08:08:41;99658.63;;;4.28;100.00
75157;BME280;63736;50.076;8.198;2023-03-05T08:11:09;99654.84;;;4.33;100.00
75157;BME280;63736;50.076;8.198;2023-03-05T08:13:36;99658.19;;;4.36;100.00
75157;BME280;63736;50.076;8.198;2023-03-05T08:16:06;99661.53;;;4.40;100.00
75157;BME280;63736;50.076;8.198;2023-03-05T08:18:31;99648.88;;;4.45;100.00
75157;BME280;63736;50.076;8.198;2023-03-05T08:20:57;99652.13;;;4.50;100.00
75157;BME280;63736;50.076;8.198;2023-03-05T08:23:22;99651.09;;;4.53;100.00
75157;BME280;63736;50.076;8.198;2023-03-05T08:25:47;99655.28;;;4.57;100.00
75157;BME280;63736;50.076;8.198;2023-03-05T08:28:13;99650.66;;;4.60;100.00
75157;BME280;63736;50.076;8.198;2023-03-05T08:30:39;99653.72;;;4.69;100.00
75157;BME280;63736;50.076;8.198;2023-03-05T08:33:04;99640.03;;;4.76;99.80
75157;BME280;63736;50.076;8.198;2023-03-05T08:35:30;99643.38;;;4.80;97.06
75157;BME280;63736;50.076;8.198;2023-03-05T08:37:55;99637.09;;;4.81;97.60
75157;BME280;63736;50.076;8.198;2023-03-05T08:40:21;99635.91;;;4.87;98.27
75157;BME280;63736;50.076;8.198;2023-03-05T08:42:46;99634.00;;;4.89;97.08
75157;BME280;63736;50.076;8.198;2023-03-05T08:45:12;99634.78;;;4.91;96.13
75157;BME280;63736;50.076;8.198;2023-03-05T08:47:37;99638.03;;;4.96;96.89
75157;BME280;63736;50.076;8.198;2023-03-05T08:50:02;99642.38;;;4.97;96.81
75157;BME280;63736;50.076;8.198;2023-03-05T08:52:28;99634.34;;;4.99;96.71
75157;BME280;63736;50.076;8.198;2023-03-05T08:54:53;99633.41;;;5.00;96.28
75157;BME280;63736;50.076;8.198;2023-03-05T08:57:18;99620.25;;;4.98;95.35
75157;BME280;63736;50.076;8.198;2023-03-05T08:59:44;99628.94;;;5.00;95.42
75157;BME280;63736;50.076;8.198;2023-03-05T09:02:11;99632.28;;;5.04;95.49
75157;BME280;63736;50.076;8.198;2023-03-05T09:04:37;99631.34;;;5.05;95.28
75157;BME280;63736;50.076;8.198;2023-03-05T09:07:02;99629.72;;;5.02;93.71
75157;BME280;63736;50.076;8.198;2023-03-05T09:09:27;99628.09;;;5.00;93.67
75157;BME280;63736;50.076;8.198;2023-03-05T09:11:54;99635.09;;;5.01;94.59
75157;BME280;63736;50.076;8.198;2023-03-05T09:14:21;99629.88;;;4.99;92.77
75157;BME280;63736;50.076;8.198;2023-03-05T09:16:46;99630.28;;;4.93;91.66
75157;BME280;63736;50.076;8.198;2023-03-05T09:19:12;99624.56;;;4.85;92.14
75157;BME280;63736;50.076;8.198;2023-03-05T09:21:39;99625.78;;;4.79;92.58
75157;BME280;63736;50.076;8.198;2023-03-05T09:24:04;99624.91;;;4.78;93.85
75157;BME280;63736;50.076;8.198;2023-03-05T09:26:29;99623.72;;;4.84;95.07
75157;BME280;63736;50.076;8.198;2023-03-05T09:28:55;99624.78;;;4.96;96.43
75157;BME280;63736;50.076;8.198;2023-03-05T09:31:20;99616.09;;;5.08;96.36
75157;BME280;63736;50.076;8.198;2023-03-05T09:33:46;99610.06;;;5.21;96.88
75157;BME280;63736;50.076;8.198;2023-03-05T09:38:43;99615.03;;;5.41;95.74
75157;BME280;63736;50.076;8.198;2023-03-05T09:43:56;99599.78;;;5.59;94.29
75157;BME280;63736;50.076;8.198;2023-03-05T09:46:30;99602.91;;;5.66;93.80
75157;BME280;63736;50.076;8.198;2023-03-05T09:49:09;99606.78;;;5.75;92.57
75157;BME280;63736;50.076;8.198;2023-03-05T09:51:39;99607.25;;;5.82;91.57
75157;BME280;63736;50.076;8.198;2023-03-05T09:54:13;99595.97;;;5.92;90.76
75157;BME280;63736;50.076;8.198;2023-03-05T09:56:47;99594.66;;;6.00;89.71
75157;BME280;63736;50.076;8.198;2023-03-05T09:59:30;99593.19;;;6.08;88.90
75157;BME280;63736;50.076;8.198;2023-03-05T10:01:58;99586.00;;;6.10;86.48
75157;BME280;63736;50.076;8.198;2023-03-05T10:04:47;99585.16;;;6.10;86.18
75157;BME280;63736;50.076;8.198;2023-03-05T10:07:37;99586.94;;;6.09;86.19
75157;BME280;63736;50.076;8.198;2023-03-05T10:10:09;99586.00;;;6.10;85.50
75157;BME280;63736;50.076;8.198;2023-03-05T10:12:41;99587.25;;;6.05;85.41
75157;BME280;63736;50.076;8.198;2023-03-05T10:15:15;99591.69;;;6.04;86.38
75157;BME280;63736;50.076;8.198;2023-03-05T10:18:04;99576.34;;;6.09;86.27
75157;BME280;63736;50.076;8.198;2023-03-05T10:20:40;99580.31;;;6.17;85.63
75157;BME280;63736;50.076;8.198;2023-03-05T10:23:32;99584.66;;;6.18;85.15
75157;BME280;63736;50.076;8.198;2023-03-05T10:29:21;99572.53;;;6.14;83.79
75157;BME280;63736;50.076;8.198;2023-03-05T10:37:51;99558.00;;;5.92;84.73
75157;BME280;63736;50.076;8.198;2023-03-05T10:40:25;99558.94;;;5.91;85.13
75157;BME280;63736;50.076;8.198;2023-03-05T10:45:51;99551.16;;;5.88;85.21
75157;BME280;63736;50.076;8.198;2023-03-05T10:48:27;99550.03;;;5.92;85.97
75157;BME280;63736;50.076;8.198;2023-03-05T10:51:08;99552.50;;;5.95;85.49
75157;BME280;63736;50.076;8.198;2023-03-05T10:53:54;99539.72;;;6.02;84.95
75157;BME280;63736;50.076;8.198;2023-03-05T10:56:22;99546.00;;;6.14;85.13
75157;BME280;63736;50.076;8.198;2023-03-05T10:58:48;99546.28;;;6.23;84.57
75157;BME280;63736;50.076;8.198;2023-03-05T11:06:12;99537.88;;;6.57;81.36
75157;BME280;63736;50.076;8.198;2023-03-05T11:08:38;99533.31;;;6.59;77.34
75157;BME280;63736;50.076;8.198;2023-03-05T11:11:04;99530.88;;;6.56;77.25
75157;BME280;63736;50.076;8.198;2023-03-05T11:13:31;99525.16;;;6.62;77.41
75157;BME280;63736;50.076;8.198;2023-03-05T11:16:02;99518.69;;;6.66;77.17
75157;BME280;63736;50.076;8.198;2023-03-05T11:18:28;99524.00;;;6.66;77.62
75157;BME280;63736;50.076;8.198;2023-03-05T11:21:22;99517.63;;;6.69;77.72
75157;BME280;63736;50.076;8.198;2023-03-05T11:24:11;99507.72;;;6.71;76.97
75157;BME280;63736;50.076;8.198;2023-03-05T11:26:45;99504.69;;;6.90;77.25
75157;BME280;63736;50.076;8.198;2023-03-05T11:29:18;99490.53;;;7.15;76.93
75157;BME280;63736;50.076;8.198;2023-03-05T11:31:44;99489.31;;;7.45;76.34
75157;BME280;63736;50.076;8.198;2023-03-05T11:39:17;99474.41;;;8.28;71.70
75157;BME280;63736;50.076;8.198;2023-03-05T11:41:56;99471.72;;;8.52;68.62
75157;BME280;63736;50.076;8.198;2023-03-05T11:44:29;99470.06;;;8.63;65.56
75157;BME280;63736;50.076;8.198;2023-03-05T11:47:02;99464.16;;;8.82;65.03
75157;BME280;63736;50.076;8.198;2023-03-05T11:49:29;99455.09;;;8.96;61.20
75157;BME280;63736;50.076;8.198;2023-03-05T11:52:27;99443.81;;;9.03;61.82
75157;BME280;63736;50.076;8.198;2023-03-05T11:57:28;99436.56;;;9.05;59.78
75157;BME280;63736;50.076;8.198;2023-03-05T11:59:57;99447.34;;;9.04;59.96
75157;BME280;63736;50.076;8.198;2023-03-05T12:02:25;99439.22;;;8.94;59.47
75157;BME280;63736;50.076;8.198;2023-03-05T12:04:51;99429.78;;;8.90;59.99
75157;BME280;63736;50.076;8.198;2023-03-05T12:07:34;99427.84;;;8.92;60.64
75157;BME280;63736;50.076;8.198;2023-03-05T12:10:02;99427.59;;;8.84;59.54
75157;BME280;63736;50.076;8.198;2023-03-05T12:12:50;99422.63;;;8.68;60.42
75157;BME280;63736;50.076;8.198;2023-03-05T12:17:49;99428.00;;;8.43;61.67
75157;BME280;63736;50.076;8.198;2023-03-05T12:20:28;99410.91;;;8.35;62.10
75157;BME280;63736;50.076;8.198;2023-03-05T12:22:57;99413.31;;;8.26;61.91
75157;BME280;63736;50.076;8.198;2023-03-05T12:25:32;99413.28;;;8.15;63.58
75157;BME280;63736;50.076;8.198;2023-03-05T12:27:58;99412.19;;;8.06;63.96
75157;BME280;63736;50.076;8.198;2023-03-05T12:33:02;99402.41;;;7.83;64.46
75157;BME280;63736;50.076;8.198;2023-03-05T12:35:32;99402.38;;;7.71;64.34
75157;BME280;63736;50.076;8.198;2023-03-05T12:38:08;99400.28;;;7.64;65.19
75157;BME280;63736;50.076;8.198;2023-03-05T12:40:38;99395.06;;;7.62;66.06
75157;BME280;63736;50.076;8.198;2023-03-05T12:43:35;99394.84;;;7.65;66.05
75157;BME280;63736;50.076;8.198;2023-03-05T12:46:34;99384.31;;;7.64;66.19
75157;BME280;63736;50.076;8.198;2023-03-05T12:51:54;99378.03;;;7.65;66.33
75157;BME280;63736;50.076;8.198;2023-03-05T12:54:37;99372.94;;;7.61;67.01
75157;BME280;63736;50.076;8.198;2023-03-05T12:57:16;99364.13;;;7.61;66.68
75157;BME280;63736;50.076;8.198;2023-03-05T12:59:53;99354.69;;;7.57;65.52
75157;BME280;63736;50.076;8.198;2023-03-05T13:02:35;99360.59;;;7.60;66.74
75157;BME280;63736;50.076;8.198;2023-03-05T13:05:06;99364.84;;;7.63;66.53
75157;BME280;63736;50.076;8.198;2023-03-05T13:07:38;99352.31;;;7.65;66.63
75157;BME280;63736;50.076;8.198;2023-03-05T13:10:04;99358.00;;;7.72;65.93
75157;BME280;63736;50.076;8.198;2023-03-05T13:12:29;99334.47;;;7.78;64.88
75157;BME280;63736;50.076;8.198;2023-03-05T13:15:01;99340.16;;;7.85;64.42
75157;BME280;63736;50.076;8.198;2023-03-05T13:17:33;99338.25;;;7.87;64.32
75157;BME280;63736;50.076;8.198;2023-03-05T13:20:01;99338.88;;;7.91;64.28
75157;BME280;63736;50.076;8.198;2023-03-05T13:22:30;99333.41;;;7.92;64.30
75157;BME280;63736;50.076;8.198;2023-03-05T13:25:16;99332.34;;;7.95;64.21
75157;BME280;63736;50.076;8.198;2023-03-05T13:27:44;99329.06;;;7.91;64.41
75157;BME280;63736;50.076;8.198;2023-03-05T13:30:24;99330.88;;;7.91;64.86
75157;BME280;63736;50.076;8.198;2023-03-05T13:32:51;99325.91;;;7.86;64.45
75157;BME280;63736;50.076;8.198;2023-03-05T13:35:17;99321.16;;;7.78;64.08
75157;BME280;63736;50.076;8.198;2023-03-05T13:37:45;99317.28;;;7.71;64.71
75157;BME280;63736;50.076;8.198;2023-03-05T13:40:20;99318.00;;;7.62;65.13
75157;BME280;63736;50.076;8.198;2023-03-05T13:42:46;99309.09;;;7.50;65.02
75157;BME280;63736;50.076;8.198;2023-03-05T13:45:20;99306.91;;;7.44;65.17
75157;BME280;63736;50.076;8.198;2023-03-05T13:48:01;99304.47;;;7.41;65.01
75157;BME280;63736;50.076;8.198;2023-03-05T13:50:36;99302.78;;;7.40;65.81
75157;BME280;63736;50.076;8.198;2023-03-05T13:53:27;99302.56;;;7.43;66.13